SBOSBO KGS / LGKO
Speedbird OnlineSpeedbird Online KGS / LGKO

Kos Airport
10:17 22°C

Location Kos, Greece
Latitude: 36.79330062866211
Longitude: 27.091699600219727
Web Wikipedia
Altitude 126 Meter / 412 Feet
Distance 2,676 KM / 1,663 Miles
from London.
Time Zone UTC +3 hours (Europe/Athens)
Codes IATA: KGS
ICAO: LGKO
Currency £1 equals EUR 1.15
Runways
RunwayLength (m)Surface
142390Asphalt
322390Asphalt
Radio
TypeDescriptionFrequency
A/GIPPOKRATIS RDO563.7
APPAPP119.95
ATISATIS126.95
TWRIPPOKRATIS TWR121.05
Live ATC
METAR LGKO 060650Z 36015KT CAVOK 22/12 Q1016
TAF TAF LGKO 060500Z 0606/0706 34017KT 9999 FEW020 TEMPO 0607/0618 34017G27KT
Weather As Of 06 Oct 2022 10:17
Description Clear sky
Wind 28 km/h from North (360°)
Cloud Cover 0%
Precipitation Rain: none, Snow: none
Sunrise 07:10
Sunset 18:48
Rotations During the last 90 days there were
34 flights from LHR
23 flights from LGW
34 flights to LHR
21 flights to LGW
1 flights to BHX
1 flights to VIE


© 2017-2022 Speedbird Online